createdAt,value
2018-03-29T00:02:06.797Z,3.10
2018-03-29T00:04:34.318Z,3.20
2018-03-29T00:07:02.606Z,3.20
2018-03-29T00:09:30.928Z,3.30
2018-03-29T00:11:58.567Z,3.20
2018-03-29T00:14:26.140Z,3.30
2018-03-29T00:16:53.704Z,3.30
2018-03-29T00:19:21.242Z,3.30
2018-03-29T00:21:48.772Z,3.30
2018-03-29T00:24:17.093Z,3.30
2018-03-29T00:26:44.620Z,3.20
2018-03-29T00:29:12.211Z,3.30
2018-03-29T00:31:39.776Z,3.30
2018-03-29T00:34:07.298Z,3.30
2018-03-29T00:36:34.818Z,3.30
2018-03-29T00:39:02.529Z,3.30
2018-03-29T00:41:30.054Z,3.40
2018-03-29T00:43:58.350Z,3.40
2018-03-29T00:46:26.525Z,3.30
2018-03-29T00:48:54.904Z,3.40
2018-03-29T00:51:22.433Z,3.40
2018-03-29T00:53:50.744Z,3.50
2018-03-29T00:56:18.265Z,3.40
2018-03-29T00:58:46.803Z,3.50
2018-03-29T01:01:14.547Z,3.50
2018-03-29T01:03:42.068Z,3.50
2018-03-29T01:06:10.396Z,3.50
2018-03-29T01:08:38.037Z,3.40
2018-03-29T01:11:06.702Z,3.50
2018-03-29T01:13:35.234Z,3.40
2018-03-29T01:16:02.831Z,3.30
2018-03-29T01:18:31.106Z,3.20
2018-03-29T01:20:59.380Z,3.20
2018-03-29T01:23:27.698Z,3.30
2018-03-29T01:25:55.259Z,3.20
2018-03-29T01:28:22.771Z,3.40
2018-03-29T01:30:50.328Z,3.30
2018-03-29T01:33:19.366Z,3.20
2018-03-29T01:35:46.991Z,3.20
2018-03-29T01:38:15.311Z,3.20
2018-03-29T01:40:42.839Z,3.20
2018-03-29T01:43:11.177Z,3.30
2018-03-29T01:45:38.850Z,3.20
2018-03-29T01:48:07.183Z,3.20
2018-03-29T01:50:34.696Z,3.20
2018-03-29T01:53:03.121Z,3.30
2018-03-29T01:55:30.642Z,3.30
2018-03-29T01:57:58.938Z,3.40
2018-03-29T02:00:26.510Z,3.30
2018-03-29T02:02:54.024Z,3.50
2018-03-29T02:05:22.311Z,3.50
2018-03-29T02:07:50.649Z,3.50
2018-03-29T02:10:18.173Z,3.50
2018-03-29T02:12:45.679Z,3.50
2018-03-29T02:15:13.216Z,3.50
2018-03-29T02:17:40.761Z,3.50
2018-03-29T02:20:08.357Z,3.50
2018-03-29T02:22:37.422Z,3.40
2018-03-29T02:25:04.950Z,3.40
2018-03-29T02:27:32.474Z,3.50
2018-03-29T02:30:00.793Z,3.50
2018-03-29T02:32:28.321Z,3.40
2018-03-29T02:34:56.607Z,3.50
2018-03-29T02:37:25.074Z,3.50
2018-03-29T02:39:53.374Z,3.50
2018-03-29T02:42:20.886Z,3.50
2018-03-29T02:44:48.521Z,3.50
2018-03-29T02:47:16.056Z,3.60
2018-03-29T02:49:43.568Z,3.60
2018-03-29T02:52:11.888Z,3.60
2018-03-29T02:54:39.468Z,3.60
2018-03-29T02:57:07.000Z,3.70
2018-03-29T02:59:34.573Z,3.60
2018-03-29T03:02:02.241Z,3.70
2018-03-29T03:04:29.795Z,3.60
2018-03-29T03:06:57.359Z,3.70
2018-03-29T03:09:24.902Z,3.70
2018-03-29T03:11:52.429Z,3.70
2018-03-29T03:14:21.262Z,3.70
2018-03-29T03:16:48.771Z,3.60
2018-03-29T03:19:17.050Z,3.70
2018-03-29T03:21:45.383Z,3.80
2018-03-29T03:24:12.913Z,3.70
2018-03-29T03:26:40.448Z,3.70
2018-03-29T03:29:08.761Z,3.70
2018-03-29T03:31:36.325Z,3.60
2018-03-29T03:34:03.859Z,3.70
2018-03-29T03:36:31.635Z,3.70
2018-03-29T03:38:59.196Z,3.70
2018-03-29T03:41:26.712Z,3.70
2018-03-29T03:43:55.025Z,3.70
2018-03-29T03:46:22.599Z,3.70
2018-03-29T03:48:50.250Z,3.70
2018-03-29T03:51:17.811Z,3.70
2018-03-29T03:53:45.378Z,3.70
2018-03-29T03:56:12.927Z,3.70
2018-03-29T03:58:40.599Z,3.70
2018-03-29T04:01:08.180Z,3.60
2018-03-29T04:03:35.702Z,3.60
2018-03-29T04:06:03.291Z,3.60
2018-03-29T04:08:30.824Z,3.60
2018-03-29T04:10:58.381Z,3.60
2018-03-29T04:13:25.918Z,3.70
2018-03-29T04:15:53.432Z,3.70
2018-03-29T04:18:20.965Z,3.70
2018-03-29T04:20:48.528Z,3.70
2018-03-29T04:23:16.074Z,3.70
2018-03-29T04:25:46.288Z,3.70
2018-03-29T04:28:13.848Z,3.70
2018-03-29T04:30:41.426Z,3.70
2018-03-29T04:33:08.954Z,3.70
2018-03-29T04:35:36.511Z,3.80
2018-03-29T04:38:04.097Z,3.80
2018-03-29T04:40:31.621Z,3.70
2018-03-29T04:42:59.209Z,3.80
2018-03-29T04:45:26.786Z,3.80
2018-03-29T04:47:54.322Z,3.80
2018-03-29T04:50:22.257Z,3.80
2018-03-29T04:52:50.544Z,3.70
2018-03-29T04:55:18.129Z,3.70
2018-03-29T04:57:45.698Z,3.80
2018-03-29T05:00:13.270Z,3.70
2018-03-29T05:02:41.022Z,3.70
2018-03-29T05:05:08.847Z,3.80
2018-03-29T05:07:36.455Z,3.80
2018-03-29T05:10:04.098Z,3.80
2018-03-29T05:12:31.642Z,3.80
2018-03-29T05:14:59.156Z,3.80
2018-03-29T05:17:27.471Z,3.80
2018-03-29T05:19:55.036Z,3.70
2018-03-29T05:22:22.593Z,3.80
2018-03-29T05:24:50.118Z,3.80
2018-03-29T05:27:20.430Z,3.80
2018-03-29T05:29:48.720Z,3.70
2018-03-29T05:32:17.048Z,3.80
2018-03-29T05:34:44.598Z,3.80
2018-03-29T05:37:12.151Z,3.80
2018-03-29T05:39:40.029Z,3.80
2018-03-29T05:42:07.572Z,3.80
2018-03-29T05:44:35.100Z,3.80
2018-03-29T05:47:03.404Z,3.80
2018-03-29T05:49:30.953Z,3.80
2018-03-29T05:51:58.480Z,3.90
2018-03-29T05:54:26.764Z,3.90
2018-03-29T05:56:55.175Z,3.90
2018-03-29T05:59:22.706Z,3.90
2018-03-29T06:01:51.002Z,3.90
2018-03-29T06:04:18.560Z,3.90
2018-03-29T06:06:46.132Z,4.00
2018-03-29T06:09:13.701Z,4.00
2018-03-29T06:11:41.266Z,4.00
2018-03-29T06:14:08.817Z,4.00
2018-03-29T06:16:41.968Z,4.00
2018-03-29T06:19:10.280Z,3.90
2018-03-29T06:21:37.806Z,3.90
2018-03-29T06:24:05.403Z,3.90
2018-03-29T06:26:32.883Z,4.00
2018-03-29T06:29:00.408Z,4.00
2018-03-29T06:31:28.090Z,4.00
2018-03-29T06:33:55.628Z,4.00
2018-03-29T06:36:23.189Z,4.00
2018-03-29T06:38:50.944Z,4.10
2018-03-29T06:41:18.476Z,4.20
2018-03-29T06:43:46.002Z,4.20
2018-03-29T06:46:15.061Z,4.30
2018-03-29T06:48:42.589Z,4.30
2018-03-29T06:51:10.129Z,4.40
2018-03-29T06:53:38.569Z,4.60
2018-03-29T06:56:06.120Z,4.50
2018-03-29T06:58:34.084Z,4.50
2018-03-29T07:01:01.686Z,4.60
2018-03-29T07:03:29.194Z,4.70
2018-03-29T07:05:56.747Z,4.60
2018-03-29T07:08:24.299Z,4.60
2018-03-29T07:10:51.813Z,4.70
2018-03-29T07:13:20.100Z,4.60
2018-03-29T07:15:48.420Z,4.60
2018-03-29T07:18:15.951Z,4.60
2018-03-29T07:20:43.454Z,4.60
2018-03-29T07:23:10.999Z,4.60
2018-03-29T07:25:38.521Z,4.70
2018-03-29T07:28:06.819Z,4.80
2018-03-29T07:30:34.385Z,4.70
2018-03-29T07:33:01.901Z,4.80
2018-03-29T07:35:30.192Z,5.00
2018-03-29T07:37:57.784Z,4.90
2018-03-29T07:40:25.334Z,5.00
2018-03-29T07:42:52.860Z,5.10
2018-03-29T07:45:21.194Z,5.40
2018-03-29T07:47:48.736Z,5.40
2018-03-29T07:50:16.294Z,5.50
2018-03-29T07:52:43.842Z,5.60
2018-03-29T07:55:11.418Z,5.40
2018-03-29T07:57:38.943Z,5.60
2018-03-29T08:00:06.493Z,5.50
2018-03-29T08:02:34.779Z,5.70
2018-03-29T08:05:02.613Z,5.70
2018-03-29T08:07:31.765Z,5.80
2018-03-29T08:09:59.287Z,5.80
2018-03-29T08:12:27.600Z,5.70
2018-03-29T08:14:55.157Z,5.60
2018-03-29T08:17:22.676Z,5.80
2018-03-29T08:19:50.959Z,6.00
2018-03-29T08:22:19.279Z,6.00
2018-03-29T08:24:46.813Z,6.00
2018-03-29T08:27:14.392Z,6.10
2018-03-29T08:29:41.944Z,5.90
2018-03-29T08:32:09.503Z,5.80
2018-03-29T08:34:37.018Z,5.70
2018-03-29T08:37:05.430Z,5.80
2018-03-29T08:39:33.531Z,5.80
2018-03-29T08:42:01.062Z,5.90
2018-03-29T08:44:28.730Z,6.00
2018-03-29T08:46:56.286Z,5.90
2018-03-29T08:49:23.821Z,5.90
2018-03-29T08:51:51.384Z,5.90
2018-03-29T08:54:24.861Z,5.90
2018-03-29T08:56:53.188Z,6.00
2018-03-29T08:59:20.727Z,5.90
2018-03-29T09:01:48.244Z,6.20
2018-03-29T09:04:16.597Z,6.50
2018-03-29T09:06:44.241Z,6.40
2018-03-29T09:09:11.771Z,6.30
2018-03-29T09:11:39.334Z,6.30
2018-03-29T09:14:06.895Z,6.30
2018-03-29T09:16:34.465Z,6.40
2018-03-29T09:19:02.192Z,6.40
2018-03-29T09:21:30.472Z,6.40
2018-03-29T09:23:58.764Z,6.60
2018-03-29T09:26:27.269Z,6.60
2018-03-29T09:28:54.811Z,6.90
2018-03-29T09:31:22.328Z,6.90
2018-03-29T09:33:50.893Z,6.70
2018-03-29T09:36:19.932Z,6.80
2018-03-29T09:38:47.509Z,6.80
2018-03-29T09:41:15.065Z,7.10
2018-03-29T09:43:42.595Z,7.10
2018-03-29T09:46:10.109Z,7.20
2018-03-29T09:48:37.737Z,7.40
2018-03-29T09:51:05.310Z,7.30
2018-03-29T09:53:32.884Z,7.40
2018-03-29T09:56:00.513Z,7.30
2018-03-29T09:58:28.038Z,7.20
2018-03-29T10:01:02.055Z,7.40
2018-03-29T10:03:30.349Z,7.50
2018-03-29T10:06:03.630Z,7.50
2018-03-29T10:08:31.203Z,7.60
2018-03-29T10:10:58.719Z,7.40
2018-03-29T10:13:27.154Z,7.50
2018-03-29T10:15:54.688Z,7.40
2018-03-29T10:18:22.294Z,7.80
2018-03-29T10:20:49.851Z,7.80
2018-03-29T10:23:17.384Z,7.50
2018-03-29T10:25:44.898Z,7.40
2018-03-29T10:28:13.798Z,7.40
2018-03-29T10:30:42.140Z,7.40
2018-03-29T10:33:09.784Z,7.40
2018-03-29T10:35:37.433Z,7.60
2018-03-29T10:38:04.948Z,7.50
2018-03-29T10:40:33.224Z,7.50
2018-03-29T10:43:01.884Z,7.60
2018-03-29T10:45:29.401Z,7.50
2018-03-29T10:47:56.939Z,7.60
2018-03-29T10:50:24.507Z,7.60
2018-03-29T10:52:52.032Z,7.50
2018-03-29T10:55:20.350Z,8.10
2018-03-29T10:57:47.922Z,8.10
2018-03-29T11:00:15.462Z,8.10
2018-03-29T11:02:43.032Z,8.20
2018-03-29T11:05:10.583Z,8.10
2018-03-29T11:07:38.111Z,7.90
2018-03-29T11:10:06.407Z,8.30
2018-03-29T11:12:33.974Z,8.20
2018-03-29T11:15:01.497Z,8.30
2018-03-29T11:17:29.809Z,8.50
2018-03-29T11:19:57.382Z,8.50
2018-03-29T11:22:24.904Z,8.40
2018-03-29T11:24:52.442Z,8.20
2018-03-29T11:27:20.022Z,8.20
2018-03-29T11:29:47.546Z,8.30
2018-03-29T11:32:15.062Z,8.20
2018-03-29T11:34:42.625Z,8.00
2018-03-29T11:37:10.180Z,7.80
2018-03-29T11:39:37.741Z,7.90
2018-03-29T11:42:05.314Z,7.70
2018-03-29T11:44:32.853Z,7.60
2018-03-29T11:47:00.376Z,7.60
2018-03-29T11:49:28.709Z,7.30
2018-03-29T11:51:56.238Z,7.30
2018-03-29T11:54:23.765Z,6.80
2018-03-29T11:56:52.107Z,6.40
2018-03-29T11:59:19.638Z,6.30
2018-03-29T12:01:47.219Z,6.00
2018-03-29T12:04:14.877Z,5.90
2018-03-29T12:06:42.424Z,5.70
2018-03-29T12:09:09.981Z,5.60
2018-03-29T12:11:37.543Z,5.70
2018-03-29T12:14:05.065Z,5.70
2018-03-29T12:16:33.358Z,5.70
2018-03-29T12:19:00.907Z,5.70
2018-03-29T12:21:29.188Z,6.30
2018-03-29T12:23:56.785Z,6.20
2018-03-29T12:26:24.440Z,6.90
2018-03-29T12:28:51.981Z,7.80
2018-03-29T12:31:19.506Z,9.20
2018-03-29T12:33:47.841Z,11.00
2018-03-29T12:36:15.636Z,10.90
2018-03-29T12:38:43.966Z,10.40
2018-03-29T12:41:11.533Z,10.30
2018-03-29T12:43:39.078Z,10.90
2018-03-29T12:46:06.737Z,12.00
2018-03-29T12:48:34.312Z,11.80
2018-03-29T12:51:01.860Z,12.40
2018-03-29T12:53:29.403Z,11.80
2018-03-29T12:55:56.968Z,12.00
2018-03-29T12:58:24.498Z,12.20
2018-03-29T13:00:52.826Z,10.50
2018-03-29T13:03:20.395Z,10.50
2018-03-29T13:05:47.921Z,10.10
2018-03-29T13:08:15.477Z,9.60
2018-03-29T13:10:43.141Z,9.40
2018-03-29T13:13:11.132Z,9.50
2018-03-29T13:15:38.696Z,9.30
2018-03-29T13:18:06.264Z,9.20
2018-03-29T13:20:33.814Z,9.30
2018-03-29T13:23:01.369Z,9.30
2018-03-29T13:25:28.938Z,9.40
2018-03-29T13:27:56.452Z,9.50
2018-03-29T13:30:23.972Z,9.60
2018-03-29T13:32:51.550Z,9.70
2018-03-29T13:35:19.839Z,9.10
2018-03-29T13:37:47.415Z,9.00
2018-03-29T13:40:15.047Z,8.60
2018-03-29T13:42:43.381Z,8.00
2018-03-29T13:45:10.905Z,7.90
2018-03-29T13:47:38.454Z,7.70
2018-03-29T13:50:05.967Z,7.70
2018-03-29T13:52:34.243Z,7.80
2018-03-29T13:55:02.590Z,8.00
2018-03-29T13:57:30.146Z,7.90
2018-03-29T13:59:57.685Z,8.60
2018-03-29T14:02:25.258Z,9.20
2018-03-29T14:04:52.778Z,9.40
2018-03-29T14:07:21.095Z,9.40
2018-03-29T14:09:48.746Z,9.30
2018-03-29T14:12:16.310Z,9.50
2018-03-29T14:14:43.927Z,9.40
2018-03-29T14:17:11.541Z,9.60
2018-03-29T14:19:39.074Z,9.40
2018-03-29T14:22:06.613Z,9.30
2018-03-29T14:24:34.926Z,9.40
2018-03-29T14:27:02.490Z,9.30
2018-03-29T14:29:30.899Z,9.30
2018-03-29T14:31:59.212Z,9.10
2018-03-29T14:34:26.738Z,9.10
2018-03-29T14:36:55.076Z,9.10
2018-03-29T14:39:22.640Z,9.00
2018-03-29T14:41:50.163Z,8.90
2018-03-29T14:44:17.699Z,8.80
2018-03-29T14:46:46.073Z,8.70
2018-03-29T14:49:14.341Z,8.80
2018-03-29T14:51:41.979Z,8.70
2018-03-29T14:54:09.552Z,8.70
2018-03-29T14:56:37.072Z,8.60
2018-03-29T14:59:04.593Z,8.70
2018-03-29T15:01:32.986Z,8.60
2018-03-29T15:04:00.518Z,8.60
2018-03-29T15:06:28.034Z,8.40
2018-03-29T15:08:55.583Z,8.10
2018-03-29T15:11:23.090Z,8.10
2018-03-29T15:13:50.625Z,7.90
2018-03-29T15:16:18.196Z,7.40
2018-03-29T15:18:45.724Z,6.70
2018-03-29T15:21:13.252Z,6.10
2018-03-29T15:23:40.840Z,5.20
2018-03-29T15:26:08.368Z,4.50
2018-03-29T15:28:35.901Z,4.10
2018-03-29T15:31:03.462Z,3.90
2018-03-29T15:33:30.980Z,3.90
2018-03-29T15:35:58.494Z,4.00
2018-03-29T15:38:26.925Z,4.30
2018-03-29T15:40:54.461Z,4.30
2018-03-29T15:43:21.990Z,4.70
2018-03-29T15:45:50.409Z,6.50
2018-03-29T15:48:17.937Z,6.40
2018-03-29T15:50:45.450Z,7.80
2018-03-29T15:53:13.015Z,8.90
2018-03-29T15:55:40.624Z,9.30
2018-03-29T15:58:08.130Z,9.70
2018-03-29T16:00:35.694Z,9.30
2018-03-29T16:03:04.034Z,9.40
2018-03-29T16:05:31.559Z,9.40
2018-03-29T16:07:59.131Z,10.20
2018-03-29T16:10:26.650Z,11.10
2018-03-29T16:12:54.934Z,12.70
2018-03-29T16:15:23.257Z,12.90
2018-03-29T16:17:50.794Z,12.90
2018-03-29T16:20:18.332Z,13.40
2018-03-29T16:22:46.657Z,13.60
2018-03-29T16:25:14.177Z,13.50
2018-03-29T16:27:41.779Z,14.30
2018-03-29T16:30:09.332Z,13.50
2018-03-29T16:32:37.214Z,14.40
2018-03-29T16:35:04.786Z,14.90
2018-03-29T16:37:32.319Z,14.30
2018-03-29T16:39:59.856Z,13.70
2018-03-29T16:42:27.378Z,13.20
2018-03-29T16:44:55.743Z,13.50
2018-03-29T16:47:24.771Z,12.60
2018-03-29T16:49:52.317Z,12.60
2018-03-29T16:52:20.635Z,12.30
2018-03-29T16:54:48.174Z,12.20
2018-03-29T16:57:15.822Z,11.80
2018-03-29T16:59:43.372Z,11.40
2018-03-29T17:02:11.720Z,11.70
2018-03-29T17:04:39.231Z,11.60
2018-03-29T17:07:06.802Z,11.50
2018-03-29T17:09:34.311Z,10.90
2018-03-29T17:12:02.598Z,10.50
2018-03-29T17:14:30.927Z,10.20
2018-03-29T17:16:58.464Z,10.20
2018-03-29T17:19:25.977Z,10.00
2018-03-29T17:21:54.289Z,9.80
2018-03-29T17:24:21.802Z,9.70
2018-03-29T17:26:49.333Z,9.50
2018-03-29T17:29:16.899Z,9.30
2018-03-29T17:31:44.429Z,9.10
2018-03-29T17:34:11.946Z,8.80
2018-03-29T17:36:40.273Z,8.10
2018-03-29T17:39:07.801Z,8.10
2018-03-29T17:41:35.332Z,7.80
2018-03-29T17:44:02.881Z,7.60
2018-03-29T17:46:30.423Z,7.30
2018-03-29T17:48:57.947Z,7.10
2018-03-29T17:51:25.493Z,7.00
2018-03-29T17:53:53.032Z,6.80
2018-03-29T17:56:21.322Z,6.30
2018-03-29T17:58:48.882Z,6.20
2018-03-29T18:01:16.417Z,6.00
2018-03-29T18:03:44.704Z,5.40
2018-03-29T18:06:13.055Z,5.10
2018-03-29T18:08:42.090Z,5.10
2018-03-29T18:11:09.599Z,5.10
2018-03-29T18:13:37.227Z,5.30
2018-03-29T18:16:04.821Z,5.20
2018-03-29T18:18:32.362Z,5.00
2018-03-29T18:20:59.926Z,5.00
2018-03-29T18:23:27.451Z,4.80
2018-03-29T18:25:54.969Z,4.90
2018-03-29T18:28:23.292Z,4.70
2018-03-29T18:30:50.870Z,4.70
2018-03-29T18:33:18.390Z,4.70
2018-03-29T18:35:45.941Z,4.50
2018-03-29T18:38:14.240Z,4.20
2018-03-29T18:40:41.767Z,4.10
2018-03-29T18:43:10.088Z,3.70
2018-03-29T18:45:38.030Z,3.70
2018-03-29T18:48:05.609Z,3.50
2018-03-29T18:50:33.181Z,3.40
2018-03-29T18:53:00.735Z,3.30
2018-03-29T18:55:28.292Z,3.20
2018-03-29T18:57:55.838Z,3.20
2018-03-29T19:00:23.343Z,3.00
2018-03-29T19:02:52.408Z,2.80
2018-03-29T19:05:20.153Z,2.80
2018-03-29T19:07:47.690Z,3.00
2018-03-29T19:10:15.222Z,2.90
2018-03-29T19:12:43.548Z,2.90
2018-03-29T19:15:11.103Z,2.90
2018-03-29T19:17:38.950Z,2.90
2018-03-29T19:20:06.528Z,2.80
2018-03-29T19:22:34.055Z,2.60
2018-03-29T19:25:02.349Z,2.50
2018-03-29T19:27:30.047Z,2.50
2018-03-29T19:29:57.562Z,2.50
2018-03-29T19:32:25.149Z,2.40
2018-03-29T19:34:52.714Z,2.30
2018-03-29T19:37:20.322Z,2.40
2018-03-29T19:39:48.607Z,2.90
2018-03-29T19:42:16.922Z,2.70
2018-03-29T19:44:44.430Z,2.70
2018-03-29T19:47:12.727Z,2.70
2018-03-29T19:49:40.331Z,2.60
2018-03-29T19:52:08.198Z,2.70
2018-03-29T19:54:35.740Z,2.60
2018-03-29T19:57:03.402Z,2.60
2018-03-29T19:59:30.976Z,2.70
2018-03-29T20:01:58.512Z,2.70
2018-03-29T20:04:26.103Z,2.50
2018-03-29T20:06:53.652Z,2.70
2018-03-29T20:09:21.196Z,2.80
2018-03-29T20:11:48.750Z,2.90
2018-03-29T20:14:16.310Z,2.80
2018-03-29T20:16:43.822Z,2.80
2018-03-29T20:19:12.165Z,2.40
2018-03-29T20:21:39.724Z,2.30
2018-03-29T20:24:07.260Z,2.40
2018-03-29T20:26:35.232Z,2.20
2018-03-29T20:29:02.771Z,2.10
2018-03-29T20:31:30.291Z,2.00
2018-03-29T20:33:58.737Z,2.00
2018-03-29T20:36:26.271Z,1.90
2018-03-29T20:38:53.786Z,1.90
2018-03-29T20:41:22.108Z,1.90
2018-03-29T20:43:49.671Z,1.90
2018-03-29T20:46:17.222Z,2.10
2018-03-29T20:48:44.771Z,2.10
2018-03-29T20:51:12.298Z,2.10
2018-03-29T20:53:39.915Z,2.00
2018-03-29T20:56:07.462Z,1.90
2018-03-29T20:58:34.970Z,1.80
2018-03-29T21:01:03.275Z,1.60
2018-03-29T21:03:30.840Z,1.50
2018-03-29T21:05:58.385Z,1.40
2018-03-29T21:08:26.676Z,1.30
2018-03-29T21:10:54.232Z,1.20
2018-03-29T21:13:21.756Z,1.30
2018-03-29T21:15:49.283Z,1.40
2018-03-29T21:18:16.842Z,1.40
2018-03-29T21:20:44.454Z,1.20
2018-03-29T21:23:12.732Z,1.60
2018-03-29T21:25:41.047Z,1.80
2018-03-29T21:28:08.586Z,1.80
2018-03-29T21:30:36.109Z,1.90
2018-03-29T21:33:04.442Z,2.00
2018-03-29T21:35:31.955Z,1.90
2018-03-29T21:38:00.245Z,1.90
2018-03-29T21:40:27.817Z,1.90
2018-03-29T21:42:55.342Z,1.80
2018-03-29T21:45:23.687Z,1.60
2018-03-29T21:47:52.759Z,1.50
2018-03-29T21:50:20.277Z,1.40
2018-03-29T21:52:48.577Z,1.50
2018-03-29T21:55:16.142Z,1.40
2018-03-29T21:57:43.664Z,1.40
2018-03-29T22:00:11.972Z,1.20
2018-03-29T22:02:39.534Z,1.10
2018-03-29T22:05:07.038Z,1.30
2018-03-29T22:07:34.573Z,1.60
2018-03-29T22:10:02.211Z,1.60
2018-03-29T22:12:29.761Z,1.70
2018-03-29T22:14:57.343Z,1.80
2018-03-29T22:17:24.925Z,1.70
2018-03-29T22:19:52.431Z,1.70
2018-03-29T22:22:19.938Z,1.60
2018-03-29T22:24:47.576Z,1.50
2018-03-29T22:27:15.130Z,1.70
2018-03-29T22:29:42.955Z,1.80
2018-03-29T22:32:11.305Z,1.70
2018-03-29T22:34:39.613Z,1.80
2018-03-29T22:37:07.210Z,1.70
2018-03-29T22:39:34.771Z,1.90
2018-03-29T22:42:02.311Z,1.90
2018-03-29T22:44:29.832Z,2.00
2018-03-29T22:46:58.247Z,2.00
2018-03-29T22:49:25.764Z,1.90
2018-03-29T22:51:54.051Z,2.10
2018-03-29T22:54:22.377Z,2.10
2018-03-29T22:56:49.896Z,2.00
2018-03-29T22:59:17.425Z,2.10
2018-03-29T23:01:44.975Z,2.20
2018-03-29T23:04:12.493Z,2.20
2018-03-29T23:06:40.025Z,2.10
2018-03-29T23:09:07.580Z,2.10
2018-03-29T23:11:35.864Z,2.10
2018-03-29T23:14:03.375Z,2.00
2018-03-29T23:16:30.939Z,2.10
2018-03-29T23:18:58.468Z,2.10
2018-03-29T23:21:25.972Z,2.10
2018-03-29T23:23:54.296Z,2.10
2018-03-29T23:26:21.832Z,2.10
2018-03-29T23:28:49.342Z,2.20
2018-03-29T23:31:16.899Z,2.10
2018-03-29T23:33:44.430Z,1.90
2018-03-29T23:36:12.003Z,1.80
2018-03-29T23:38:39.547Z,1.90
2018-03-29T23:41:07.083Z,2.00
2018-03-29T23:43:35.441Z,2.00
2018-03-29T23:46:03.870Z,2.20
2018-03-29T23:48:31.430Z,2.10
2018-03-29T23:50:58.956Z,2.20
2018-03-29T23:53:26.517Z,2.20
2018-03-29T23:55:54.033Z,2.20
2018-03-29T23:58:21.546Z,2.30
